createdAt,value
2022-08-11T00:01:53.793Z,16.70
2022-08-11T00:04:23.872Z,16.80
2022-08-11T00:06:53.662Z,16.70
2022-08-11T00:09:24.318Z,16.80
2022-08-11T00:11:53.660Z,16.80
2022-08-11T00:14:36.005Z,16.80
2022-08-11T00:17:08.154Z,16.80
2022-08-11T00:20:13.720Z,16.80
2022-08-11T00:22:29.931Z,16.80
2022-08-11T00:25:02.204Z,16.80
2022-08-11T00:27:34.846Z,16.80
2022-08-11T00:30:03.108Z,16.80
2022-08-11T00:32:31.530Z,16.70
2022-08-11T00:35:54.744Z,16.80
2022-08-11T00:37:50.747Z,16.80
2022-08-11T00:40:26.735Z,16.80
2022-08-11T00:43:00.077Z,16.80
2022-08-11T00:45:29.309Z,16.80
2022-08-11T00:48:05.100Z,16.80
2022-08-11T00:50:42.304Z,16.80
2022-08-11T00:53:38.468Z,16.80
2022-08-11T00:56:34.160Z,16.80
2022-08-11T00:59:35.274Z,16.90
2022-08-11T01:02:40.453Z,16.90
2022-08-11T01:05:24.426Z,17.00
2022-08-11T01:08:21.370Z,17.00
2022-08-11T01:11:16.114Z,17.00
2022-08-11T01:14:41.953Z,17.10
2022-08-11T01:18:07.145Z,17.20
2022-08-11T01:20:59.865Z,17.20
2022-08-11T01:24:00.814Z,17.30
2022-08-11T01:26:58.455Z,17.30
2022-08-11T01:29:52.466Z,17.40
2022-08-11T01:33:10.980Z,17.40
2022-08-11T01:36:03.374Z,17.40
2022-08-11T01:39:22.558Z,17.50
2022-08-11T01:42:19.828Z,17.50
2022-08-11T01:45:12.771Z,17.50
2022-08-11T01:47:54.387Z,17.50
2022-08-11T01:50:46.563Z,17.50
2022-08-11T01:53:25.138Z,17.50
2022-08-11T01:55:59.178Z,17.30
2022-08-11T01:58:43.395Z,17.40
2022-08-11T02:01:21.875Z,17.40
2022-08-11T02:03:59.339Z,17.40
2022-08-11T02:06:49.270Z,17.40
2022-08-11T02:09:24.990Z,17.30
2022-08-11T02:11:52.297Z,17.30
2022-08-11T02:14:25.638Z,17.30
2022-08-11T02:17:16.145Z,17.20
2022-08-11T02:20:11.532Z,17.10
2022-08-11T02:23:05.611Z,17.10
2022-08-11T02:25:38.657Z,16.90
2022-08-11T02:28:10.221Z,16.90
2022-08-11T02:30:39.830Z,16.80
2022-08-11T02:33:25.264Z,16.80
2022-08-11T02:36:00.941Z,16.70
2022-08-11T02:38:32.266Z,16.60
2022-08-11T02:41:27.619Z,16.40
2022-08-11T02:44:06.285Z,16.30
2022-08-11T02:46:41.481Z,16.30
2022-08-11T02:49:36.433Z,16.30
2022-08-11T02:52:07.066Z,16.40
2022-08-11T02:54:40.500Z,16.40
2022-08-11T02:57:14.309Z,16.30
2022-08-11T02:59:52.492Z,16.40
2022-08-11T03:02:32.298Z,16.40
2022-08-11T03:05:09.293Z,16.30
2022-08-11T03:07:43.507Z,16.10
2022-08-11T03:10:14.881Z,16.10
2022-08-11T03:13:04.600Z,16.00
2022-08-11T03:15:51.352Z,16.00
2022-08-11T03:18:25.303Z,15.90
2022-08-11T03:20:58.962Z,15.80
2022-08-11T03:23:28.785Z,15.70
2022-08-11T03:25:59.920Z,15.60
2022-08-11T03:28:32.508Z,15.50
2022-08-11T03:31:08.778Z,15.60
2022-08-11T03:34:04.131Z,15.50
2022-08-11T03:37:34.093Z,15.60
2022-08-11T03:40:08.774Z,15.60
2022-08-11T03:42:43.369Z,15.60
2022-08-11T03:45:21.968Z,15.60
2022-08-11T03:48:10.628Z,15.70
2022-08-11T03:50:55.297Z,15.70
2022-08-11T03:53:37.775Z,15.60
2022-08-11T03:56:22.747Z,15.80
2022-08-11T03:59:25.333Z,15.80
2022-08-11T04:02:19.044Z,15.80
2022-08-11T04:05:08.806Z,15.80
2022-08-11T04:08:15.365Z,15.80
2022-08-11T04:11:08.091Z,15.80
2022-08-11T04:14:21.028Z,15.80
2022-08-11T04:16:48.984Z,15.80
2022-08-11T04:19:49.884Z,15.80
2022-08-11T04:22:37.712Z,15.80
2022-08-11T04:25:31.059Z,15.80
2022-08-11T04:28:29.323Z,15.90
2022-08-11T04:31:50.518Z,15.90
2022-08-11T04:34:58.700Z,15.90
2022-08-11T04:37:53.567Z,15.90
2022-08-11T04:40:51.223Z,15.90
2022-08-11T04:44:05.545Z,16.00
2022-08-11T04:47:07.066Z,16.00
2022-08-11T04:50:14.406Z,16.10
2022-08-11T04:53:21.205Z,16.10
2022-08-11T04:56:41.629Z,16.20
2022-08-11T05:00:05.763Z,16.30
2022-08-11T05:03:11.058Z,16.40
2022-08-11T05:06:02.355Z,16.40
2022-08-11T05:08:53.099Z,16.40
2022-08-11T05:11:36.072Z,16.50
2022-08-11T05:14:47.301Z,16.60
2022-08-11T05:17:34.540Z,16.60
2022-08-11T05:20:20.245Z,16.70
2022-08-11T05:23:09.610Z,16.80
2022-08-11T05:26:42.987Z,16.80
2022-08-11T05:29:19.768Z,16.90
2022-08-11T05:32:09.120Z,16.90
2022-08-11T05:34:57.202Z,16.90
2022-08-11T05:37:27.879Z,17.00
2022-08-11T05:40:18.458Z,17.10
2022-08-11T05:43:08.718Z,17.20
2022-08-11T05:46:03.391Z,17.20
2022-08-11T05:48:54.776Z,17.20
2022-08-11T05:51:54.563Z,17.30
2022-08-11T05:54:41.138Z,17.30
2022-08-11T05:57:10.764Z,17.40
2022-08-11T06:00:01.062Z,17.50
2022-08-11T06:02:29.432Z,17.50
2022-08-11T06:04:58.423Z,17.50
2022-08-11T06:07:29.901Z,17.60
2022-08-11T06:10:27.939Z,17.60
2022-08-11T06:12:58.754Z,17.70
2022-08-11T06:15:27.076Z,17.80
2022-08-11T06:17:55.694Z,17.80
2022-08-11T06:20:25.652Z,17.80
2022-08-11T06:22:58.854Z,17.80
2022-08-11T06:25:31.937Z,17.90
2022-08-11T06:28:01.587Z,17.90
2022-08-11T06:30:35.271Z,18.00
2022-08-11T06:33:04.355Z,18.10
2022-08-11T06:35:37.949Z,18.10
2022-08-11T06:38:07.993Z,18.10
2022-08-11T06:40:43.469Z,18.20
2022-08-11T06:43:20.182Z,18.10
2022-08-11T06:45:54.769Z,18.20
2022-08-11T06:48:24.351Z,18.20
2022-08-11T06:51:11.525Z,18.20
2022-08-11T06:53:43.749Z,18.30
2022-08-11T06:57:01.677Z,18.30
2022-08-11T06:59:57.532Z,18.30
2022-08-11T07:02:31.302Z,18.30
2022-08-11T07:05:02.079Z,18.40
2022-08-11T07:08:33.612Z,18.40
2022-08-11T07:11:37.294Z,18.50
2022-08-11T07:14:22.902Z,18.60
2022-08-11T07:16:52.551Z,18.70
2022-08-11T07:19:40.857Z,18.70
2022-08-11T07:22:27.522Z,18.80
2022-08-11T07:25:14.551Z,18.90
2022-08-11T07:28:01.810Z,18.90
2022-08-11T07:30:30.146Z,18.90
2022-08-11T07:33:00.987Z,19.10
2022-08-11T07:35:32.427Z,19.10
2022-08-11T07:38:04.786Z,19.30
2022-08-11T07:40:35.390Z,19.30
2022-08-11T07:43:03.532Z,19.40
2022-08-11T07:45:49.038Z,19.40
2022-08-11T07:48:37.202Z,19.50
2022-08-11T07:51:23.249Z,19.70
2022-08-11T07:53:58.672Z,19.70
2022-08-11T07:56:54.466Z,19.80
2022-08-11T08:00:00.654Z,19.80
2022-08-11T08:02:45.094Z,19.80
2022-08-11T08:05:32.170Z,19.90
2022-08-11T08:08:17.828Z,19.90
2022-08-11T08:11:03.561Z,19.90
2022-08-11T08:13:50.484Z,20.00
2022-08-11T08:16:35.970Z,20.00
2022-08-11T08:19:04.151Z,20.10
2022-08-11T08:21:33.743Z,20.20
2022-08-11T08:24:01.966Z,20.20
2022-08-11T08:26:51.467Z,20.20
2022-08-11T08:29:37.617Z,20.30
2022-08-11T08:32:05.822Z,20.40
2022-08-11T08:34:34.084Z,20.40
2022-08-11T08:37:15.720Z,20.40
2022-08-11T08:39:51.857Z,20.30
2022-08-11T08:42:22.731Z,20.30
2022-08-11T08:44:53.191Z,20.30
2022-08-11T08:47:38.775Z,20.30
2022-08-11T08:50:16.603Z,20.20
2022-08-11T08:52:49.237Z,20.20
2022-08-11T08:55:19.379Z,20.30
2022-08-11T08:57:47.925Z,20.30
2022-08-11T09:00:19.448Z,20.30
2022-08-11T09:02:50.782Z,20.30
2022-08-11T09:05:19.130Z,20.30
2022-08-11T09:07:48.890Z,20.30
2022-08-11T09:10:17.507Z,20.40
2022-08-11T09:12:45.787Z,20.50
2022-08-11T09:15:19.353Z,20.70
2022-08-11T09:17:49.076Z,20.80
2022-08-11T09:20:19.667Z,21.00
2022-08-11T09:24:07.115Z,21.00
2022-08-11T09:26:15.089Z,21.00
2022-08-11T09:28:44.118Z,21.00
2022-08-11T09:31:13.403Z,21.00
2022-08-11T09:33:42.837Z,20.90
2022-08-11T09:36:28.850Z,20.90
2022-08-11T09:39:15.825Z,20.90
2022-08-11T09:42:00.519Z,21.10
2022-08-11T09:44:55.373Z,21.10
2022-08-11T09:47:24.630Z,21.10
2022-08-11T09:49:53.881Z,21.10
2022-08-11T09:52:22.164Z,21.10
2022-08-11T09:54:51.774Z,21.00
2022-08-11T09:57:38.311Z,21.10
2022-08-11T10:00:12.622Z,21.20
2022-08-11T10:02:46.642Z,21.40
2022-08-11T10:05:34.447Z,21.40
2022-08-11T10:08:03.167Z,21.30
2022-08-11T10:10:32.791Z,21.20
2022-08-11T10:14:32.010Z,21.20
2022-08-11T10:16:15.426Z,21.20
2022-08-11T10:18:49.441Z,21.40
2022-08-11T10:21:25.121Z,21.50
2022-08-11T10:24:11.063Z,21.70
2022-08-11T10:26:55.547Z,21.80
2022-08-11T10:29:45.237Z,21.80
2022-08-11T10:32:49.409Z,21.70
2022-08-11T10:35:27.262Z,21.80
2022-08-11T10:38:08.085Z,21.90
2022-08-11T10:40:39.876Z,22.20
2022-08-11T10:43:13.754Z,22.30
2022-08-11T10:46:01.479Z,22.30
2022-08-11T10:48:30.843Z,22.30
2022-08-11T10:51:50.194Z,22.40
2022-08-11T10:54:24.289Z,22.40
2022-08-11T10:57:09.983Z,22.60
2022-08-11T10:59:39.572Z,22.60
2022-08-11T11:02:07.848Z,22.60
2022-08-11T11:04:48.888Z,22.50
2022-08-11T11:07:22.632Z,22.50
2022-08-11T11:09:52.133Z,22.40
2022-08-11T11:12:40.344Z,22.30
2022-08-11T11:15:28.435Z,22.40
2022-08-11T11:18:01.811Z,22.60
2022-08-11T11:20:37.221Z,22.80
2022-08-11T11:23:14.138Z,23.00
2022-08-11T11:26:06.848Z,23.20
2022-08-11T11:29:03.079Z,23.30
2022-08-11T11:31:38.406Z,23.50
2022-08-11T11:34:20.026Z,23.60
2022-08-11T11:36:50.608Z,23.60
2022-08-11T11:39:20.578Z,23.70
2022-08-11T11:41:49.590Z,23.80
2022-08-11T11:44:17.829Z,23.80
2022-08-11T11:46:47.542Z,23.90
2022-08-11T11:49:17.132Z,24.00
2022-08-11T11:51:46.037Z,24.20
2022-08-11T11:54:18.351Z,24.30
2022-08-11T11:56:46.627Z,24.40
2022-08-11T11:59:32.464Z,24.40
2022-08-11T12:02:12.199Z,24.20
2022-08-11T12:04:42.078Z,24.00
2022-08-11T12:07:27.611Z,23.80
2022-08-11T12:09:56.049Z,23.60
2022-08-11T12:12:41.742Z,23.50
2022-08-11T12:15:11.171Z,23.60
2022-08-11T12:17:40.914Z,23.60
2022-08-11T12:20:31.752Z,23.70
2022-08-11T12:23:16.100Z,24.00
2022-08-11T12:26:23.712Z,24.10
2022-08-11T12:28:49.952Z,24.00
2022-08-11T12:31:18.186Z,23.90
2022-08-11T12:33:47.764Z,23.80
2022-08-11T12:36:16.518Z,23.60
2022-08-11T12:38:45.889Z,23.70
2022-08-11T12:41:37.836Z,23.80
2022-08-11T12:44:25.308Z,23.90
2022-08-11T12:46:53.571Z,24.10
2022-08-11T12:49:44.873Z,24.30
2022-08-11T12:52:22.549Z,24.50
2022-08-11T12:54:57.636Z,24.60
2022-08-11T12:57:47.174Z,24.80
2022-08-11T13:00:33.702Z,24.70
2022-08-11T13:03:19.775Z,24.80
2022-08-11T13:05:49.856Z,24.80
2022-08-11T13:08:18.421Z,24.90
2022-08-11T13:11:03.872Z,24.90
2022-08-11T13:13:54.419Z,24.80
2022-08-11T13:16:20.770Z,24.80
2022-08-11T13:18:49.135Z,24.90
2022-08-11T13:21:20.165Z,25.00
2022-08-11T13:24:01.323Z,24.80
2022-08-11T13:26:47.274Z,24.90
2022-08-11T13:29:20.401Z,24.80
2022-08-11T13:31:48.725Z,24.90
2022-08-11T13:34:17.288Z,24.80
2022-08-11T13:36:47.040Z,24.90
2022-08-11T13:39:15.433Z,25.00
2022-08-11T13:41:45.348Z,25.20
2022-08-11T13:44:16.793Z,25.10
2022-08-11T13:46:47.367Z,25.20
2022-08-11T13:49:16.587Z,25.20
2022-08-11T13:51:46.147Z,25.10
2022-08-11T13:54:23.272Z,25.00
2022-08-11T13:56:53.697Z,24.90
2022-08-11T13:59:24.063Z,24.90
2022-08-11T14:02:22.608Z,25.00
2022-08-11T14:04:52.040Z,25.20
2022-08-11T14:07:23.426Z,24.30
2022-08-11T14:09:58.957Z,23.70
2022-08-11T14:12:44.891Z,23.30
2022-08-11T14:15:20.170Z,22.60
2022-08-11T14:17:51.324Z,21.80
2022-08-11T14:20:38.966Z,21.40
2022-08-11T14:23:11.045Z,21.00
2022-08-11T14:26:02.325Z,20.50
2022-08-11T14:28:36.532Z,20.20
2022-08-11T14:31:09.476Z,20.00
2022-08-11T14:34:00.322Z,19.70
2022-08-11T14:36:26.985Z,19.50
2022-08-11T14:38:56.834Z,19.30
2022-08-11T14:42:12.665Z,19.20
2022-08-11T14:44:47.899Z,19.10
2022-08-11T14:47:23.864Z,19.20
2022-08-11T14:49:58.600Z,19.10
2022-08-11T14:52:40.714Z,19.10
2022-08-11T14:55:27.921Z,19.10
2022-08-11T14:57:57.082Z,19.20
2022-08-11T15:00:25.492Z,18.90
2022-08-11T15:03:11.299Z,18.90
2022-08-11T15:05:58.520Z,18.80
2022-08-11T15:08:47.017Z,18.70
2022-08-11T15:11:34.827Z,18.90
2022-08-11T15:14:03.904Z,18.90
2022-08-11T15:16:49.601Z,18.90
2022-08-11T15:19:19.657Z,18.90
2022-08-11T15:22:05.470Z,18.80
2022-08-11T15:24:35.596Z,18.90
2022-08-11T15:27:23.676Z,19.00
2022-08-11T15:30:09.237Z,18.90
2022-08-11T15:33:01.943Z,18.80
2022-08-11T15:35:47.652Z,18.80
2022-08-11T15:38:16.009Z,18.60
2022-08-11T15:41:01.391Z,18.70
2022-08-11T15:43:50.422Z,18.70
2022-08-11T15:46:22.142Z,19.00
2022-08-11T15:48:52.189Z,19.10
2022-08-11T15:51:25.227Z,19.10
2022-08-11T15:53:57.077Z,19.20
2022-08-11T15:56:25.988Z,19.40
2022-08-11T15:59:42.342Z,19.40
2022-08-11T16:02:19.218Z,19.40
2022-08-11T16:04:47.636Z,19.40
2022-08-11T16:07:16.643Z,19.20
2022-08-11T16:09:48.157Z,19.10
2022-08-11T16:12:22.106Z,19.20
2022-08-11T16:15:10.243Z,19.10
2022-08-11T16:17:42.328Z,19.20
2022-08-11T16:20:11.386Z,19.30
2022-08-11T16:22:41.520Z,19.40
2022-08-11T16:27:05.882Z,19.40
2022-08-11T16:28:14.539Z,19.40
2022-08-11T16:30:46.589Z,19.40
2022-08-11T16:33:48.565Z,19.30
2022-08-11T16:36:25.673Z,19.30
2022-08-11T16:38:54.387Z,19.40
2022-08-11T16:41:38.003Z,19.30
2022-08-11T16:44:32.783Z,19.40
2022-08-11T16:47:09.436Z,19.40
2022-08-11T16:49:38.407Z,19.40
2022-08-11T16:52:08.193Z,19.50
2022-08-11T16:54:36.508Z,19.60
2022-08-11T16:57:20.677Z,19.50
2022-08-11T16:59:49.319Z,19.50
2022-08-11T17:02:41.304Z,19.40
2022-08-11T17:05:29.443Z,19.50
2022-08-11T17:08:15.557Z,19.60
2022-08-11T17:11:06.972Z,19.60
2022-08-11T17:13:38.339Z,19.40
2022-08-11T17:16:12.120Z,19.40
2022-08-11T17:18:45.797Z,19.30
2022-08-11T17:21:17.203Z,19.40
2022-08-11T17:23:47.334Z,19.50
2022-08-11T17:26:24.317Z,19.30
2022-08-11T17:28:56.415Z,19.70
2022-08-11T17:31:42.537Z,19.90
2022-08-11T17:34:29.469Z,19.80
2022-08-11T17:36:57.758Z,19.90
2022-08-11T17:39:29.470Z,19.90
2022-08-11T17:42:15.360Z,19.70
2022-08-11T17:45:01.108Z,19.60
2022-08-11T17:47:46.755Z,19.50
2022-08-11T17:50:17.974Z,19.40
2022-08-11T17:53:04.823Z,19.50
2022-08-11T17:55:53.422Z,19.30
2022-08-11T17:58:39.666Z,19.40
2022-08-11T18:01:09.068Z,19.10
2022-08-11T18:03:40.089Z,18.90
2022-08-11T18:06:12.688Z,18.90
2022-08-11T18:09:01.604Z,18.70
2022-08-11T18:12:11.001Z,18.50
2022-08-11T18:14:54.974Z,18.40
2022-08-11T18:17:40.990Z,18.30
2022-08-11T18:20:27.751Z,18.20
2022-08-11T18:23:15.209Z,18.10
2022-08-11T18:26:03.055Z,18.00
2022-08-11T18:28:54.473Z,18.10
2022-08-11T18:31:40.356Z,18.10
2022-08-11T18:34:27.214Z,17.90
2022-08-11T18:37:20.188Z,17.90
2022-08-11T18:40:15.333Z,18.00
2022-08-11T18:43:01.050Z,17.90
2022-08-11T18:45:47.060Z,17.90
2022-08-11T18:48:40.922Z,17.90
2022-08-11T18:51:30.584Z,17.80
2022-08-11T18:54:24.069Z,17.90
2022-08-11T18:57:10.942Z,17.90
2022-08-11T18:59:57.759Z,17.80
2022-08-11T19:02:48.633Z,17.80
2022-08-11T19:06:31.944Z,17.70
2022-08-11T19:08:41.868Z,17.60
2022-08-11T19:11:27.511Z,17.60
2022-08-11T19:14:16.086Z,17.70
2022-08-11T19:17:02.376Z,17.70
2022-08-11T19:19:48.123Z,17.70
2022-08-11T19:22:33.959Z,17.70
2022-08-11T19:25:23.373Z,17.60
2022-08-11T19:28:11.516Z,17.60
2022-08-11T19:30:58.631Z,17.60
2022-08-11T19:34:00.179Z,17.60
2022-08-11T19:36:49.642Z,17.60
2022-08-11T19:39:35.425Z,17.60
2022-08-11T19:42:21.281Z,17.60
2022-08-11T19:45:07.009Z,17.60
2022-08-11T19:48:14.072Z,17.60
2022-08-11T19:50:59.542Z,17.50
2022-08-11T19:53:45.578Z,17.50
2022-08-11T19:56:30.990Z,17.50
2022-08-11T19:59:16.919Z,17.50
2022-08-11T20:02:13.358Z,17.40
2022-08-11T20:05:01.228Z,17.30
2022-08-11T20:07:46.982Z,17.30
2022-08-11T20:10:32.611Z,17.30
2022-08-11T20:13:21.293Z,17.20
2022-08-11T20:16:07.703Z,17.20
2022-08-11T20:18:53.785Z,17.20
2022-08-11T20:21:41.079Z,17.10
2022-08-11T20:24:27.022Z,17.10
2022-08-11T20:27:24.756Z,17.10
2022-08-11T20:30:10.655Z,17.10
2022-08-11T20:32:56.358Z,17.10
2022-08-11T20:35:41.773Z,17.10
2022-08-11T20:38:29.112Z,17.00
2022-08-11T20:41:16.315Z,17.00
2022-08-11T20:44:08.078Z,17.00
2022-08-11T20:46:56.998Z,17.00
2022-08-11T20:49:50.514Z,16.90
2022-08-11T20:52:40.728Z,16.90
2022-08-11T20:55:46.398Z,16.90
2022-08-11T20:59:11.261Z,16.80
2022-08-11T21:01:41.189Z,16.70
2022-08-11T21:04:27.817Z,16.70
2022-08-11T21:07:18.586Z,16.60
2022-08-11T21:10:18.739Z,16.60
2022-08-11T21:13:23.965Z,16.60
2022-08-11T21:16:18.347Z,16.60
2022-08-11T21:19:14.295Z,16.50
2022-08-11T21:22:00.605Z,16.50
2022-08-11T21:24:47.076Z,16.50
2022-08-11T21:27:34.385Z,16.40
2022-08-11T21:30:21.516Z,16.40
2022-08-11T21:33:07.056Z,16.40
2022-08-11T21:35:52.879Z,16.20
2022-08-11T21:38:38.573Z,16.20
2022-08-11T21:41:24.247Z,16.00
2022-08-11T21:44:10.242Z,16.00
2022-08-11T21:46:57.276Z,16.00
2022-08-11T21:49:43.136Z,16.00
2022-08-11T21:52:28.984Z,16.10
2022-08-11T21:55:14.460Z,16.10
2022-08-11T21:58:00.309Z,15.90
2022-08-11T22:00:46.054Z,15.90
2022-08-11T22:03:49.324Z,15.80
2022-08-11T22:06:36.302Z,15.80
2022-08-11T22:09:21.937Z,15.90
2022-08-11T22:12:30.648Z,16.00
2022-08-11T22:15:13.428Z,15.90
2022-08-11T22:17:59.080Z,15.90
2022-08-11T22:20:46.377Z,16.00
2022-08-11T22:23:36.252Z,16.00
2022-08-11T22:26:23.050Z,16.00
2022-08-11T22:29:10.229Z,15.90
2022-08-11T22:31:55.789Z,15.80
2022-08-11T22:34:52.668Z,15.80
2022-08-11T22:37:40.475Z,15.80
2022-08-11T22:40:27.785Z,15.80
2022-08-11T22:43:13.433Z,15.80
2022-08-11T22:45:59.124Z,15.80
2022-08-11T22:48:45.390Z,15.70
2022-08-11T22:51:30.846Z,15.80
2022-08-11T22:54:18.517Z,15.80
2022-08-11T22:57:04.348Z,15.70
2022-08-11T22:59:50.093Z,15.70
2022-08-11T23:02:36.008Z,15.80
2022-08-11T23:05:21.732Z,15.80
2022-08-11T23:08:07.521Z,15.80
2022-08-11T23:10:54.636Z,15.80
2022-08-11T23:13:40.312Z,15.70
2022-08-11T23:16:26.065Z,15.70
2022-08-11T23:19:11.870Z,15.60
2022-08-11T23:21:57.546Z,15.60
2022-08-11T23:24:43.920Z,15.50
2022-08-11T23:27:31.447Z,15.50
2022-08-11T23:30:19.055Z,15.40
2022-08-11T23:33:10.028Z,15.40
2022-08-11T23:36:01.078Z,15.40
2022-08-11T23:38:49.473Z,15.40
2022-08-11T23:41:35.368Z,15.40
2022-08-11T23:44:23.014Z,15.40
2022-08-11T23:47:09.876Z,15.40
2022-08-11T23:49:55.878Z,15.40
2022-08-11T23:52:43.352Z,15.40
2022-08-11T23:55:28.959Z,15.40
2022-08-11T23:58:14.815Z,15.40
